PWSweather.com
Personal Weather Stations
Station Observations
DW6359
Southwest Cambria, Cambria, WI 53923

Southwest CambriaCambria, WI 53923

Lat: 43.541194, Lon: -89.11275

Elevation: 945

Station Type: Davis Vantage Pro2

http://home.centurytel.net/weathercambria/wxcambria.html

Latest ConditionsUpdated 11:55:14 AM CST Sunday, Jan 26, 2020
Currently Today's Max Today's Min Today's Average
Temperature 31.2°F-0.4°C 33.0°F0.6°C 30.7°F-0.7°C 31.7°F-0.2°C
Dew Point 28.3°F-2.1°C 30.7°F-0.7°C 27.9°F-2.3°C 29.1°F-1.6°C
Winds 6.0 mph W9.7 kmh W 12.0 mph -19.3 kmh - - 3.3 mph 5.3 kmh
Wind Gusts -- 13.0 mph20.9 kmh - -
Humidity 89% 91% 89% 90%
Pressure 29.97 in1014.9 mb 29.99 in1015.6 mb 29.96 in1014.6 mb -
Hour Temp Dew Point Humidity Winds Wind Gusts Pressure Precip Precip Rate Daily Precip Total
11:55 AM 31.2°F-0.4°C 28.3°F-2.1°C 89% 6.0 mph W9.7 kmh W -- 29.97 in1014.9 mb 0.00 in0.0 mm 0.00 in0.0 mm 0.00 in0.0 mm
11:50 AM 31.2°F-0.4°C 28.3°F-2.1°C 89% 3.0 mph WSW4.8 kmh WSW -- 29.98 in1015.2 mb 0.00 in0.0 mm 0.00 in0.0 mm 0.00 in0.0 mm
11:45 AM 31.2°F-0.4°C 28.3°F-2.1°C 89% 5.0 mph WSW8.0 kmh WSW -- 29.98 in1015.2 mb 0.00 in0.0 mm 0.00 in0.0 mm 0.00 in0.0 mm
11:40 AM 31.1°F-0.5°C 28.2°F-2.1°C 89% 5.0 mph W8.0 kmh W -- 29.98 in1015.2 mb 0.00 in0.0 mm 0.00 in0.0 mm 0.00 in0.0 mm
11:35 AM 31.1°F-0.5°C 28.2°F-2.1°C 89% 5.0 mph W8.0 kmh W -- 29.98 in1015.2 mb 0.00 in0.0 mm 0.00 in0.0 mm 0.00 in0.0 mm
11:30 AM 31.2°F-0.4°C 28.3°F-2.1°C 89% 6.0 mph WNW9.7 kmh WNW -- 29.98 in1015.2 mb 0.00 in0.0 mm 0.00 in0.0 mm 0.00 in0.0 mm
11:25 AM 31.2°F-0.4°C 28.3°F-2.1°C 89% 4.0 mph WSW6.4 kmh WSW -- 29.98 in1015.2 mb 0.00 in0.0 mm 0.00 in0.0 mm 0.00 in0.0 mm
11:20 AM 31.3°F-0.4°C 28.7°F-1.8°C 90% 7.0 mph W11.3 kmh W -- 29.98 in1015.2 mb 0.00 in0.0 mm 0.00 in0.0 mm 0.00 in0.0 mm
11:15 AM 31.3°F-0.4°C 28.7°F-1.8°C 90% 8.0 mph W12.9 kmh W 9.0 mph14.5 kmh 29.98 in1015.2 mb 0.00 in0.0 mm 0.00 in0.0 mm 0.00 in0.0 mm
11:10 AM 31.3°F-0.4°C 28.7°F-1.8°C 90% 8.0 mph NW12.9 kmh NW 9.0 mph14.5 kmh 29.99 in1015.6 mb 0.00 in0.0 mm 0.00 in0.0 mm 0.00 in0.0 mm
11:05 AM 31.2°F-0.4°C 28.6°F-1.9°C 90% 6.0 mph W9.7 kmh W -- 29.99 in1015.6 mb 0.00 in0.0 mm 0.00 in0.0 mm 0.00 in0.0 mm
11:00 AM 31.1°F-0.5°C 28.5°F-1.9°C 90% 7.0 mph W11.3 kmh W -- 29.99 in1015.6 mb 0.00 in0.0 mm 0.00 in0.0 mm 0.00 in0.0 mm
10:55 AM 31.1°F-0.5°C 28.5°F-1.9°C 90% 6.0 mph W9.7 kmh W -- 29.99 in1015.6 mb 0.00 in0.0 mm 0.00 in0.0 mm 0.00 in0.0 mm
10:50 AM 31.0°F-0.6°C 28.1°F-2.2°C 89% 6.0 mph W9.7 kmh W -- 29.99 in1015.6 mb 0.00 in0.0 mm 0.00 in0.0 mm 0.00 in0.0 mm
10:45 AM 31.0°F-0.6°C 28.1°F-2.2°C 89% 5.0 mph W8.0 kmh W -- 29.99 in1015.6 mb 0.00 in0.0 mm 0.00 in0.0 mm 0.00 in0.0 mm
10:40 AM 30.9°F-0.6°C 28.0°F-2.2°C 89% 6.0 mph W9.7 kmh W -- 29.99 in1015.6 mb 0.00 in0.0 mm 0.00 in0.0 mm 0.00 in0.0 mm
10:35 AM 31.0°F-0.6°C 28.1°F-2.2°C 89% 6.0 mph WNW9.7 kmh WNW -- 29.99 in1015.6 mb 0.00 in0.0 mm 0.00 in0.0 mm 0.00 in0.0 mm
10:30 AM 31.0°F-0.6°C 28.1°F-2.2°C 89% 6.0 mph WSW9.7 kmh WSW -- 29.99 in1015.6 mb 0.00 in0.0 mm 0.00 in0.0 mm 0.00 in0.0 mm
10:25 AM 31.1°F-0.5°C 28.2°F-2.1°C 89% 6.0 mph NW9.7 kmh NW 11.0 mph17.7 kmh 29.99 in1015.6 mb 0.00 in0.0 mm 0.00 in0.0 mm 0.00 in0.0 mm
10:20 AM 31.0°F-0.6°C 28.1°F-2.2°C 89% 7.0 mph W11.3 kmh W 11.0 mph17.7 kmh 29.99 in1015.6 mb 0.00 in0.0 mm 0.00 in0.0 mm 0.00 in0.0 mm
10:15 AM 31.0°F-0.6°C 28.1°F-2.2°C 89% 7.0 mph W11.3 kmh W -- 29.98 in1015.2 mb 0.00 in0.0 mm 0.00 in0.0 mm 0.00 in0.0 mm
10:10 AM 30.9°F-0.6°C 28.0°F-2.2°C 89% 8.0 mph W12.9 kmh W -- 29.98 in1015.2 mb 0.00 in0.0 mm 0.00 in0.0 mm 0.00 in0.0 mm
10:05 AM 30.9°F-0.6°C 28.0°F-2.2°C 89% 7.0 mph WNW11.3 kmh WNW -- 29.99 in1015.6 mb 0.00 in0.0 mm 0.00 in0.0 mm 0.00 in0.0 mm
10:00 AM 30.9°F-0.6°C 28.0°F-2.2°C 89% 3.0 mph WNW4.8 kmh WNW -- 29.99 in1015.6 mb 0.00 in0.0 mm 0.00 in0.0 mm 0.00 in0.0 mm
09:55 AM 30.9°F-0.6°C 28.0°F-2.2°C 89% 6.0 mph W9.7 kmh W -- 29.99 in1015.6 mb 0.00 in0.0 mm 0.00 in0.0 mm 0.00 in0.0 mm
09:50 AM 31.0°F-0.6°C 28.1°F-2.2°C 89% 6.0 mph W9.7 kmh W -- 29.98 in1015.2 mb 0.00 in0.0 mm 0.00 in0.0 mm 0.00 in0.0 mm
09:45 AM 30.8°F-0.7°C 27.9°F-2.3°C 89% 4.0 mph W6.4 kmh W -- 29.98 in1015.2 mb 0.00 in0.0 mm 0.00 in0.0 mm 0.00 in0.0 mm
09:40 AM 30.8°F-0.7°C 27.9°F-2.3°C 89% 5.0 mph WSW8.0 kmh WSW -- 29.98 in1015.2 mb 0.00 in0.0 mm 0.00 in0.0 mm 0.00 in0.0 mm
09:35 AM 30.9°F-0.6°C 28.0°F-2.2°C 89% 8.0 mph W12.9 kmh W 9.0 mph14.5 kmh 29.98 in1015.2 mb 0.00 in0.0 mm 0.00 in0.0 mm 0.00 in0.0 mm
09:30 AM 31.0°F-0.6°C 28.1°F-2.2°C 89% 4.0 mph W6.4 kmh W 9.0 mph14.5 kmh 29.98 in1015.2 mb 0.00 in0.0 mm 0.00 in0.0 mm 0.00 in0.0 mm
09:25 AM 31.0°F-0.6°C 28.1°F-2.2°C 89% Calm Calm -- 29.98 in1015.2 mb 0.00 in0.0 mm 0.00 in0.0 mm 0.00 in0.0 mm
09:20 AM 31.0°F-0.6°C 28.1°F-2.2°C 89% 5.0 mph WNW8.0 kmh WNW -- 29.98 in1015.2 mb 0.00 in0.0 mm 0.00 in0.0 mm 0.00 in0.0 mm
09:15 AM 31.0°F-0.6°C 28.4°F-2.0°C 90% 3.0 mph WNW4.8 kmh WNW -- 29.98 in1015.2 mb 0.00 in0.0 mm 0.00 in0.0 mm 0.00 in0.0 mm
09:10 AM 31.0°F-0.6°C 28.4°F-2.0°C 90% Calm Calm -- 29.98 in1015.2 mb 0.00 in0.0 mm 0.00 in0.0 mm 0.00 in0.0 mm
09:05 AM 31.0°F-0.6°C 28.4°F-2.0°C 90% Calm Calm -- 29.98 in1015.2 mb 0.00 in0.0 mm 0.00 in0.0 mm 0.00 in0.0 mm
09:00 AM 30.9°F-0.6°C 28.3°F-2.1°C 90% Calm Calm -- 29.98 in1015.2 mb 0.00 in0.0 mm 0.00 in0.0 mm 0.00 in0.0 mm
08:55 AM 30.9°F-0.6°C 28.3°F-2.1°C 90% Calm Calm -- 29.98 in1015.2 mb 0.00 in0.0 mm 0.00 in0.0 mm 0.00 in0.0 mm
08:50 AM 30.9°F-0.6°C 28.3°F-2.1°C 90% Calm Calm -- 29.98 in1015.2 mb 0.00 in0.0 mm 0.00 in0.0 mm 0.00 in0.0 mm
08:45 AM 30.8°F-0.7°C 28.2°F-2.1°C 90% Calm Calm 10.0 mph16.1 kmh 29.98 in1015.2 mb 0.00 in0.0 mm 0.00 in0.0 mm 0.00 in0.0 mm
08:40 AM 30.7°F-0.7°C 28.1°F-2.2°C 90% 5.0 mph NW8.0 kmh NW 10.0 mph16.1 kmh 29.98 in1015.2 mb 0.00 in0.0 mm 0.00 in0.0 mm 0.00 in0.0 mm
08:35 AM 30.8°F-0.7°C 28.2°F-2.1°C 90% 7.0 mph NW11.3 kmh NW -- 29.98 in1015.2 mb 0.00 in0.0 mm 0.00 in0.0 mm 0.00 in0.0 mm
08:30 AM 30.8°F-0.7°C 28.2°F-2.1°C 90% 5.0 mph NW8.0 kmh NW -- 29.98 in1015.2 mb 0.00 in0.0 mm 0.00 in0.0 mm 0.00 in0.0 mm
08:25 AM 31.0°F-0.6°C 28.4°F-2.0°C 90% 5.0 mph NW8.0 kmh NW -- 29.98 in1015.2 mb 0.00 in0.0 mm 0.00 in0.0 mm 0.00 in0.0 mm
08:20 AM 30.9°F-0.6°C 28.3°F-2.1°C 90% 2.0 mph W3.2 kmh W -- 29.98 in1015.2 mb 0.00 in0.0 mm 0.00 in0.0 mm 0.00 in0.0 mm
08:15 AM 30.9°F-0.6°C 28.3°F-2.1°C 90% 5.0 mph W8.0 kmh W -- 29.98 in1015.2 mb 0.00 in0.0 mm 0.00 in0.0 mm 0.00 in0.0 mm
08:10 AM 30.9°F-0.6°C 28.3°F-2.1°C 90% 4.0 mph WSW6.4 kmh WSW -- 29.98 in1015.2 mb 0.00 in0.0 mm 0.00 in0.0 mm 0.00 in0.0 mm
08:05 AM 31.0°F-0.6°C 28.1°F-2.2°C 89% 4.0 mph W6.4 kmh W -- 29.98 in1015.2 mb 0.00 in0.0 mm 0.00 in0.0 mm 0.00 in0.0 mm
08:00 AM 31.0°F-0.6°C 28.1°F-2.2°C 89% 4.0 mph W6.4 kmh W -- 29.98 in1015.2 mb 0.00 in0.0 mm 0.00 in0.0 mm 0.00 in0.0 mm
07:55 AM 31.0°F-0.6°C 28.1°F-2.2°C 89% 4.0 mph W6.4 kmh W 11.0 mph17.7 kmh 29.98 in1015.2 mb 0.00 in0.0 mm 0.00 in0.0 mm 0.00 in0.0 mm
07:50 AM 31.0°F-0.6°C 28.1°F-2.2°C 89% 9.0 mph WNW14.5 kmh WNW 11.0 mph17.7 kmh 29.98 in1015.2 mb 0.00 in0.0 mm 0.00 in0.0 mm 0.00 in0.0 mm
07:45 AM 31.0°F-0.6°C 28.1°F-2.2°C 89% 8.0 mph W12.9 kmh W -- 29.98 in1015.2 mb 0.00 in0.0 mm 0.00 in0.0 mm 0.00 in0.0 mm
07:40 AM 31.1°F-0.5°C 28.2°F-2.1°C 89% 9.0 mph NW14.5 kmh NW -- 29.98 in1015.2 mb 0.00 in0.0 mm 0.00 in0.0 mm 0.00 in0.0 mm
07:35 AM 31.2°F-0.4°C 28.3°F-2.1°C 89% 12.0 mph WNW19.3 kmh WNW -- 29.98 in1015.2 mb 0.00 in0.0 mm 0.00 in0.0 mm 0.00 in0.0 mm
07:30 AM 31.2°F-0.4°C 28.3°F-2.1°C 89% 4.0 mph WSW6.4 kmh WSW -- 29.98 in1015.2 mb 0.00 in0.0 mm 0.00 in0.0 mm 0.00 in0.0 mm
07:25 AM 31.2°F-0.4°C 28.3°F-2.1°C 89% 4.0 mph WNW6.4 kmh WNW -- 29.98 in1015.2 mb 0.00 in0.0 mm 0.00 in0.0 mm 0.00 in0.0 mm
07:20 AM 31.2°F-0.4°C 28.3°F-2.1°C 89% 4.0 mph WNW6.4 kmh WNW -- 29.98 in1015.2 mb 0.00 in0.0 mm 0.00 in0.0 mm 0.00 in0.0 mm
07:15 AM 31.2°F-0.4°C 28.3°F-2.1°C 89% 4.0 mph WNW6.4 kmh WNW -- 29.98 in1015.2 mb 0.00 in0.0 mm 0.00 in0.0 mm 0.00 in0.0 mm
07:10 AM 31.3°F-0.4°C 28.4°F-2.0°C 89% 6.0 mph WNW9.7 kmh WNW -- 29.98 in1015.2 mb 0.00 in0.0 mm 0.00 in0.0 mm 0.00 in0.0 mm
07:05 AM 31.4°F-0.3°C 28.5°F-1.9°C 89% Calm Calm 8.0 mph12.9 kmh 29.98 in1015.2 mb 0.00 in0.0 mm 0.00 in0.0 mm 0.00 in0.0 mm
07:00 AM 31.4°F-0.3°C 28.5°F-1.9°C 89% 3.0 mph W4.8 kmh W 8.0 mph12.9 kmh 29.98 in1015.2 mb 0.00 in0.0 mm 0.00 in0.0 mm 0.00 in0.0 mm
06:55 AM 31.4°F-0.3°C 28.5°F-1.9°C 89% 5.0 mph WNW8.0 kmh WNW -- 29.98 in1015.2 mb 0.00 in0.0 mm 0.00 in0.0 mm 0.00 in0.0 mm
06:50 AM 31.4°F-0.3°C 28.5°F-1.9°C 89% 3.0 mph WNW4.8 kmh WNW -- 29.97 in1014.9 mb 0.00 in0.0 mm 0.00 in0.0 mm 0.00 in0.0 mm
06:45 AM 31.4°F-0.3°C 28.5°F-1.9°C 89% Calm Calm -- 29.97 in1014.9 mb 0.00 in0.0 mm 0.00 in0.0 mm 0.00 in0.0 mm
06:40 AM 31.4°F-0.3°C 28.5°F-1.9°C 89% Calm Calm -- 29.97 in1014.9 mb 0.00 in0.0 mm 0.00 in0.0 mm 0.00 in0.0 mm
06:35 AM 31.3°F-0.4°C 28.4°F-2.0°C 89% 2.0 mph W3.2 kmh W -- 29.97 in1014.9 mb 0.00 in0.0 mm 0.00 in0.0 mm 0.00 in0.0 mm
06:30 AM 31.3°F-0.4°C 28.4°F-2.0°C 89% 2.0 mph W3.2 kmh W -- 29.97 in1014.9 mb 0.00 in0.0 mm 0.00 in0.0 mm 0.00 in0.0 mm
06:25 AM 31.3°F-0.4°C 28.4°F-2.0°C 89% 7.0 mph W11.3 kmh W -- 29.97 in1014.9 mb 0.00 in0.0 mm 0.00 in0.0 mm 0.00 in0.0 mm
06:20 AM 31.3°F-0.4°C 28.7°F-1.8°C 90% Calm Calm -- 29.97 in1014.9 mb 0.00 in0.0 mm 0.00 in0.0 mm 0.00 in0.0 mm
06:15 AM 31.3°F-0.4°C 28.7°F-1.8°C 90% Calm Calm -- 29.97 in1014.9 mb 0.00 in0.0 mm 0.00 in0.0 mm 0.00 in0.0 mm
06:10 AM 31.3°F-0.4°C 28.7°F-1.8°C 90% Calm Calm -- 29.97 in1014.9 mb 0.00 in0.0 mm 0.00 in0.0 mm 0.00 in0.0 mm
06:05 AM 31.4°F-0.3°C 28.8°F-1.8°C 90% Calm Calm -- 29.97 in1014.9 mb 0.00 in0.0 mm 0.00 in0.0 mm 0.00 in0.0 mm
06:00 AM 31.4°F-0.3°C 28.5°F-1.9°C 89% Calm Calm -- 29.96 in1014.6 mb 0.00 in0.0 mm 0.00 in0.0 mm 0.00 in0.0 mm
05:55 AM 31.4°F-0.3°C 28.5°F-1.9°C 89% 2.0 mph WNW3.2 kmh WNW -- 29.96 in1014.6 mb 0.00 in0.0 mm 0.00 in0.0 mm 0.00 in0.0 mm
05:50 AM 31.4°F-0.3°C 28.5°F-1.9°C 89% Calm Calm -- 29.96 in1014.6 mb 0.00 in0.0 mm 0.00 in0.0 mm 0.00 in0.0 mm
05:45 AM 31.5°F-0.3°C 28.6°F-1.9°C 89% 3.0 mph W4.8 kmh W -- 29.96 in1014.6 mb 0.00 in0.0 mm 0.00 in0.0 mm 0.00 in0.0 mm
05:40 AM 31.5°F-0.3°C 28.6°F-1.9°C 89% 2.0 mph W3.2 kmh W -- 29.96 in1014.6 mb 0.00 in0.0 mm 0.00 in0.0 mm 0.00 in0.0 mm
05:35 AM 31.5°F-0.3°C 28.6°F-1.9°C 89% 2.0 mph W3.2 kmh W -- 29.96 in1014.6 mb 0.00 in0.0 mm 0.00 in0.0 mm 0.00 in0.0 mm
05:30 AM 31.6°F-0.2°C 28.7°F-1.8°C 89% 3.0 mph W4.8 kmh W -- 29.96 in1014.6 mb 0.00 in0.0 mm 0.00 in0.0 mm 0.00 in0.0 mm
05:25 AM 31.6°F-0.2°C 28.7°F-1.8°C 89% 2.0 mph W3.2 kmh W 9.0 mph14.5 kmh 29.96 in1014.6 mb 0.00 in0.0 mm 0.00 in0.0 mm 0.00 in0.0 mm
05:20 AM 31.7°F-0.2°C 28.8°F-1.8°C 89% 6.0 mph WNW9.7 kmh WNW 9.0 mph14.5 kmh 29.96 in1014.6 mb 0.00 in0.0 mm 0.00 in0.0 mm 0.00 in0.0 mm
05:15 AM 31.7°F-0.2°C 29.1°F-1.6°C 90% Calm Calm -- 29.96 in1014.6 mb 0.00 in0.0 mm 0.00 in0.0 mm 0.00 in0.0 mm
05:10 AM 31.7°F-0.2°C 29.1°F-1.6°C 90% 5.0 mph W8.0 kmh W -- 29.96 in1014.6 mb 0.00 in0.0 mm 0.00 in0.0 mm 0.00 in0.0 mm
05:05 AM 31.7°F-0.2°C 29.1°F-1.6°C 90% Calm Calm -- 29.96 in1014.6 mb 0.00 in0.0 mm 0.00 in0.0 mm 0.00 in0.0 mm
05:00 AM 31.8°F-0.1°C 29.2°F-1.6°C 90% Calm Calm -- 29.96 in1014.6 mb 0.00 in0.0 mm 0.00 in0.0 mm 0.00 in0.0 mm
04:55 AM 31.8°F-0.1°C 29.2°F-1.6°C 90% 3.0 mph W4.8 kmh W -- 29.96 in1014.6 mb 0.00 in0.0 mm 0.00 in0.0 mm 0.00 in0.0 mm
04:50 AM 31.8°F-0.1°C 29.2°F-1.6°C 90% 5.0 mph NNW8.0 kmh NNW -- 29.96 in1014.6 mb 0.00 in0.0 mm 0.00 in0.0 mm 0.00 in0.0 mm
04:45 AM 31.9°F-0.1°C 29.3°F-1.5°C 90% 2.0 mph WNW3.2 kmh WNW -- 29.96 in1014.6 mb 0.00 in0.0 mm 0.00 in0.0 mm 0.00 in0.0 mm
04:40 AM 31.9°F-0.1°C 29.3°F-1.5°C 90% 2.0 mph W3.2 kmh W -- 29.96 in1014.6 mb 0.00 in0.0 mm 0.00 in0.0 mm 0.00 in0.0 mm
04:35 AM 32.0°F0.0°C 29.4°F-1.4°C 90% Calm Calm 9.0 mph14.5 kmh 29.96 in1014.6 mb 0.00 in0.0 mm 0.00 in0.0 mm 0.00 in0.0 mm
04:30 AM 32.0°F0.0°C 29.4°F-1.4°C 90% 8.0 mph W12.9 kmh W 9.0 mph14.5 kmh 29.96 in1014.6 mb 0.00 in0.0 mm 0.00 in0.0 mm 0.00 in0.0 mm
04:25 AM 32.0°F0.0°C 29.4°F-1.4°C 90% 4.0 mph W6.4 kmh W -- 29.96 in1014.6 mb 0.00 in0.0 mm 0.00 in0.0 mm 0.00 in0.0 mm
04:20 AM 32.0°F0.0°C 29.7°F-1.3°C 91% Calm Calm -- 29.96 in1014.6 mb 0.00 in0.0 mm 0.00 in0.0 mm 0.00 in0.0 mm
04:15 AM 32.1°F0.1°C 29.5°F-1.4°C 90% 3.0 mph W4.8 kmh W -- 29.96 in1014.6 mb 0.00 in0.0 mm 0.00 in0.0 mm 0.00 in0.0 mm
04:10 AM 32.2°F0.1°C 29.6°F-1.3°C 90% 7.0 mph W11.3 kmh W -- 29.96 in1014.6 mb 0.00 in0.0 mm 0.00 in0.0 mm 0.00 in0.0 mm
04:05 AM 32.3°F0.2°C 29.7°F-1.3°C 90% 4.0 mph W6.4 kmh W -- 29.96 in1014.6 mb 0.00 in0.0 mm 0.00 in0.0 mm 0.00 in0.0 mm
04:00 AM 32.3°F0.2°C 29.7°F-1.3°C 90% 2.0 mph WSW3.2 kmh WSW -- 29.96 in1014.6 mb 0.00 in0.0 mm 0.00 in0.0 mm 0.00 in0.0 mm
03:55 AM 32.2°F0.1°C 29.6°F-1.3°C 90% Calm Calm -- 29.96 in1014.6 mb 0.00 in0.0 mm 0.00 in0.0 mm 0.00 in0.0 mm
03:50 AM 32.3°F0.2°C 30.0°F-1.1°C 91% Calm Calm -- 29.96 in1014.6 mb 0.00 in0.0 mm 0.00 in0.0 mm 0.00 in0.0 mm
03:45 AM 32.3°F0.2°C 30.0°F-1.1°C 91% 3.0 mph W4.8 kmh W 8.0 mph12.9 kmh 29.96 in1014.6 mb 0.00 in0.0 mm 0.00 in0.0 mm 0.00 in0.0 mm
03:40 AM 32.3°F0.2°C 30.0°F-1.1°C 91% 4.0 mph W6.4 kmh W 8.0 mph12.9 kmh 29.96 in1014.6 mb 0.00 in0.0 mm 0.00 in0.0 mm 0.00 in0.0 mm
03:35 AM 32.3°F0.2°C 30.0°F-1.1°C 91% 8.0 mph W12.9 kmh W -- 29.96 in1014.6 mb 0.00 in0.0 mm 0.00 in0.0 mm 0.00 in0.0 mm
03:30 AM 32.3°F0.2°C 30.0°F-1.1°C 91% 4.0 mph W6.4 kmh W -- 29.96 in1014.6 mb 0.00 in0.0 mm 0.00 in0.0 mm 0.00 in0.0 mm
03:25 AM 32.3°F0.2°C 30.0°F-1.1°C 91% Calm Calm -- 29.96 in1014.6 mb 0.00 in0.0 mm 0.00 in0.0 mm 0.00 in0.0 mm
03:20 AM 32.3°F0.2°C 30.0°F-1.1°C 91% Calm Calm -- 29.97 in1014.9 mb 0.00 in0.0 mm 0.00 in0.0 mm 0.00 in0.0 mm
03:15 AM 32.3°F0.2°C 30.0°F-1.1°C 91% 4.0 mph W6.4 kmh W -- 29.97 in1014.9 mb 0.00 in0.0 mm 0.00 in0.0 mm 0.00 in0.0 mm
03:10 AM 32.3°F0.2°C 30.0°F-1.1°C 91% 2.0 mph W3.2 kmh W -- 29.97 in1014.9 mb 0.00 in0.0 mm 0.00 in0.0 mm 0.00 in0.0 mm
03:05 AM 32.3°F0.2°C 30.0°F-1.1°C 91% Calm Calm -- 29.97 in1014.9 mb 0.00 in0.0 mm 0.00 in0.0 mm 0.00 in0.0 mm
03:00 AM 32.3°F0.2°C 30.0°F-1.1°C 91% Calm Calm -- 29.97 in1014.9 mb 0.00 in0.0 mm 0.00 in0.0 mm 0.00 in0.0 mm
02:55 AM 32.3°F0.2°C 30.0°F-1.1°C 91% 3.0 mph WSW4.8 kmh WSW 7.0 mph11.3 kmh 29.97 in1014.9 mb 0.00 in0.0 mm 0.00 in0.0 mm 0.00 in0.0 mm
02:50 AM 32.3°F0.2°C 30.0°F-1.1°C 91% Calm Calm 7.0 mph11.3 kmh 29.97 in1014.9 mb 0.00 in0.0 mm 0.00 in0.0 mm 0.00 in0.0 mm
02:45 AM 32.3°F0.2°C 30.0°F-1.1°C 91% 1.0 mph NW1.6 kmh NW -- 29.97 in1014.9 mb 0.00 in0.0 mm 0.00 in0.0 mm 0.00 in0.0 mm
02:40 AM 32.4°F0.2°C 30.1°F-1.1°C 91% 5.0 mph WNW8.0 kmh WNW -- 29.97 in1014.9 mb 0.00 in0.0 mm 0.00 in0.0 mm 0.00 in0.0 mm
02:35 AM 32.3°F0.2°C 30.0°F-1.1°C 91% Calm Calm -- 29.97 in1014.9 mb 0.00 in0.0 mm 0.00 in0.0 mm 0.00 in0.0 mm
02:30 AM 32.4°F0.2°C 30.1°F-1.1°C 91% Calm Calm -- 29.97 in1014.9 mb 0.00 in0.0 mm 0.00 in0.0 mm 0.00 in0.0 mm
02:25 AM 32.4°F0.2°C 30.1°F-1.1°C 91% 3.0 mph WNW4.8 kmh WNW -- 29.97 in1014.9 mb 0.00 in0.0 mm 0.00 in0.0 mm 0.00 in0.0 mm
02:20 AM 32.5°F0.3°C 30.2°F-1.0°C 91% 1.0 mph W1.6 kmh W -- 29.97 in1014.9 mb 0.00 in0.0 mm 0.00 in0.0 mm 0.00 in0.0 mm
02:15 AM 32.6°F0.3°C 30.3°F-0.9°C 91% 4.0 mph WNW6.4 kmh WNW -- 29.97 in1014.9 mb 0.00 in0.0 mm 0.00 in0.0 mm 0.00 in0.0 mm
02:10 AM 32.6°F0.3°C 30.3°F-0.9°C 91% Calm Calm -- 29.97 in1014.9 mb 0.00 in0.0 mm 0.00 in0.0 mm 0.00 in0.0 mm
02:05 AM 32.6°F0.3°C 30.3°F-0.9°C 91% Calm Calm 8.0 mph12.9 kmh 29.97 in1014.9 mb 0.00 in0.0 mm 0.00 in0.0 mm 0.00 in0.0 mm
02:00 AM 32.7°F0.4°C 30.1°F-1.1°C 90% 3.0 mph WNW4.8 kmh WNW 8.0 mph12.9 kmh 29.97 in1014.9 mb 0.00 in0.0 mm 0.00 in0.0 mm 0.00 in0.0 mm
01:55 AM 32.8°F0.4°C 30.2°F-1.0°C 90% 3.0 mph W4.8 kmh W -- 29.96 in1014.6 mb 0.00 in0.0 mm 0.00 in0.0 mm 0.00 in0.0 mm
01:50 AM 32.8°F0.4°C 30.2°F-1.0°C 90% Calm Calm -- 29.96 in1014.6 mb 0.00 in0.0 mm 0.00 in0.0 mm 0.00 in0.0 mm
01:45 AM 32.8°F0.4°C 30.2°F-1.0°C 90% 3.0 mph W4.8 kmh W -- 29.96 in1014.6 mb 0.00 in0.0 mm 0.00 in0.0 mm 0.00 in0.0 mm
01:40 AM 32.8°F0.4°C 30.2°F-1.0°C 90% Calm Calm -- 29.96 in1014.6 mb 0.00 in0.0 mm 0.00 in0.0 mm 0.00 in0.0 mm
01:35 AM 32.8°F0.4°C 30.2°F-1.0°C 90% 2.0 mph WNW3.2 kmh WNW -- 29.97 in1014.9 mb 0.00 in0.0 mm 0.00 in0.0 mm 0.00 in0.0 mm
01:30 AM 32.8°F0.4°C 30.2°F-1.0°C 90% 5.0 mph NW8.0 kmh NW -- 29.97 in1014.9 mb 0.00 in0.0 mm 0.00 in0.0 mm 0.00 in0.0 mm
01:25 AM 32.9°F0.5°C 30.3°F-0.9°C 90% 4.0 mph NW6.4 kmh NW -- 29.97 in1014.9 mb 0.00 in0.0 mm 0.00 in0.0 mm 0.00 in0.0 mm
01:20 AM 32.8°F0.4°C 30.5°F-0.8°C 91% 4.0 mph W6.4 kmh W -- 29.96 in1014.6 mb 0.00 in0.0 mm 0.00 in0.0 mm 0.00 in0.0 mm
01:15 AM 32.9°F0.5°C 30.6°F-0.8°C 91% 5.0 mph WNW8.0 kmh WNW 13.0 mph20.9 kmh 29.96 in1014.6 mb 0.00 in0.0 mm 0.00 in0.0 mm 0.00 in0.0 mm
01:10 AM 32.9°F0.5°C 30.6°F-0.8°C 91% 5.0 mph WNW8.0 kmh WNW 13.0 mph20.9 kmh 29.96 in1014.6 mb 0.00 in0.0 mm 0.00 in0.0 mm 0.00 in0.0 mm
01:05 AM 32.9°F0.5°C 30.6°F-0.8°C 91% Calm Calm -- 29.96 in1014.6 mb 0.00 in0.0 mm 0.00 in0.0 mm 0.00 in0.0 mm
01:00 AM 32.9°F0.5°C 30.6°F-0.8°C 91% 5.0 mph W8.0 kmh W -- 29.96 in1014.6 mb 0.00 in0.0 mm 0.00 in0.0 mm 0.00 in0.0 mm
12:55 AM 32.9°F0.5°C 30.6°F-0.8°C 91% 1.0 mph W1.6 kmh W -- 29.96 in1014.6 mb 0.00 in0.0 mm 0.00 in0.0 mm 0.00 in0.0 mm
12:50 AM 32.9°F0.5°C 30.6°F-0.8°C 91% Calm Calm -- 29.96 in1014.6 mb 0.00 in0.0 mm 0.00 in0.0 mm 0.00 in0.0 mm
12:45 AM 32.9°F0.5°C 30.6°F-0.8°C 91% Calm Calm -- 29.96 in1014.6 mb 0.00 in0.0 mm 0.00 in0.0 mm 0.00 in0.0 mm
12:40 AM 32.9°F0.5°C 30.6°F-0.8°C 91% 2.0 mph W3.2 kmh W -- 29.96 in1014.6 mb 0.00 in0.0 mm 0.00 in0.0 mm 0.00 in0.0 mm
12:35 AM 32.9°F0.5°C 30.6°F-0.8°C 91% 6.0 mph W9.7 kmh W -- 29.96 in1014.6 mb 0.00 in0.0 mm 0.00 in0.0 mm 0.00 in0.0 mm
12:30 AM 32.9°F0.5°C 30.6°F-0.8°C 91% 2.0 mph W3.2 kmh W -- 29.96 in1014.6 mb 0.00 in0.0 mm 0.00 in0.0 mm 0.00 in0.0 mm
12:25 AM 32.9°F0.5°C 30.6°F-0.8°C 91% 5.0 mph WNW8.0 kmh WNW 5.0 mph8.0 kmh 29.96 in1014.6 mb 0.00 in0.0 mm 0.00 in0.0 mm 0.00 in0.0 mm
12:20 AM 32.9°F0.5°C 30.6°F-0.8°C 91% 1.0 mph WSW1.6 kmh WSW 5.0 mph8.0 kmh 29.96 in1014.6 mb 0.00 in0.0 mm 0.00 in0.0 mm 0.00 in0.0 mm
12:15 AM 32.9°F0.5°C 30.6°F-0.8°C 91% Calm Calm -- 29.96 in1014.6 mb 0.00 in0.0 mm 0.00 in0.0 mm 0.00 in0.0 mm
12:10 AM 33.0°F0.6°C 30.7°F-0.7°C 91% 3.0 mph W4.8 kmh W -- 29.96 in1014.6 mb 0.00 in0.0 mm 0.00 in0.0 mm 0.00 in0.0 mm
12:05 AM 33.0°F0.6°C 30.7°F-0.7°C 91% 1.0 mph W1.6 kmh W -- 29.96 in1014.6 mb 0.00 in0.0 mm 0.00 in0.0 mm 0.00 in0.0 mm
12:00 AM 33.0°F0.6°C 30.7°F-0.7°C 91% Calm Calm -- 29.96 in1014.6 mb 0.00 in0.0 mm 0.00 in0.0 mm 0.00 in0.0 mm